KSDF

Louisville International-Standiford Field Airport

Louisville, Kentucky, USA
METAR KSDF 170644Z 14004KT 7SM SCT024 BKN030 OVC044 04/01 A3021 RMK AO2 T00440011
Observed Flight Rules
Jan-17 @ 06:44 UTC (7 minutes ago) Marginal Visual Flight Rules
Wind Visibility Clouds
140° at 4 knots 7 miles
  • Scattered at 2,400' AGL
  • Broken at 3,000' AGL
  • Overcast at 4,400' AGL
Temperatures Readings
Current 4°C / 39°F
Dewpoint 1°C / 34°F
Humidity 81%
Altimeter 30.21" Hg
Pressure 1023.02 hPa
Elevation 146
METAR KSDF 170644Z 14004KT 7SM SCT024 BKN030 OVC044 04/01 A3021 RMK AO2 T00440011
Observed Flight Rules
Jan-17 @ 06:44 UTC
(7 minutes ago)
MVFR
Wind Visibility
140° at 4 knots 7 miles
Clouds
  • Scattered at 2,400' AGL
  • Broken at 3,000' AGL
  • Overcast at 4,400' AGL
Temperature Dewpoint
4°C / 39°F 1°C / 34°F
Humidity Altimeter Pressure
81% 30.21" Hg 1023.02 hPa